M I D A S
Marine Information and Data Acquisition System
Tripno 1165 of the Zeeleeuw from 2006-09-06 05:03:03 to 2006-09-06 16:12:47
Back to CruiseResearch ActivitiesStationsMapUnderway DataData graphs

EquipmentUnitsComment
TimeDGPSUTC
LatitudeDGPSDM.mWGS84
LongitudeDGPSDM.mWGS84
HeadingGyrodeg 
SOGDGPSknotsSpeed over ground
COGDGPSdegCourse over ground
DepthEcho soundermeters200 kHz
Missing or incorrect values are displayed as -999
Navigation data collected by the RV Zeeleeuw from 2006-09-06 04:42:15 to 2006-09-06 16:26:44
                                                                                    Next 1000 lines
Time Latitude Longitude Heading SOG COG Depth
2006-09-06 04:42:25 51°13.596 2°56.092 125.5 -999 206 -999
2006-09-06 04:42:30 51°13.597 2°56.092 125.5 -999 352 -999
2006-09-06 04:42:35 51°13.597 2°56.092 125.5 0.1 4 -999
2006-09-06 04:42:40 51°13.597 2°56.092 125.5 -999 355 -999
2006-09-06 04:42:45 51°13.597 2°56.093 125.5 -999 186 -999
2006-09-06 04:42:50 51°13.597 2°56.094 125.5 -999 165 -999
2006-09-06 04:42:55 51°13.598 2°56.095 125.5 0.1 166 -999
2006-09-06 04:43:00 51°13.598 2°56.093 125.5 -999 69 -999
2006-09-06 04:43:05 51°13.598 2°56.093 125.5 -999 10 -999
2006-09-06 04:43:10 51°13.598 2°56.094 125.5 -999 57 -999
2006-09-06 04:43:15 51°13.598 2°56.094 125.5 -999 205 -999
2006-09-06 04:43:20 51°13.598 2°56.094 125.5 -999 47 -999
2006-09-06 04:43:25 51°13.598 2°56.094 125.5 -999 35 -999
2006-09-06 04:43:30 51°13.598 2°56.094 125.5 -999 37 -999
2006-09-06 04:43:35 51°13.598 2°56.094 125.5 -999 224 -999
2006-09-06 04:43:40 51°13.598 2°56.094 125.5 -999 213 -999
2006-09-06 04:43:45 51°13.598 2°56.094 125.5 -999 245 -999
2006-09-06 04:43:50 51°13.598 2°56.094 125.5 -999 223 -999
2006-09-06 04:43:55 51°13.598 2°56.095 125.5 -999 220 -999
2006-09-06 04:44:00 51°13.598 2°56.095 125.5 -999 215 -999
2006-09-06 04:44:05 51°13.598 2°56.095 125.5 -999 207 -999
2006-09-06 04:44:10 51°13.598 2°56.095 125.5 -999 182 -999
2006-09-06 04:44:15 51°13.598 2°56.095 125.5 -999 330 -999
2006-09-06 04:44:20 51°13.598 2°56.095 125.5 -999 184 -999
2006-09-06 04:44:25 51°13.598 2°56.095 125.5 -999 32 -999
2006-09-06 04:44:30 51°13.597 2°56.094 125.5 -999 255 -999
2006-09-06 04:44:35 51°13.597 2°56.094 125.5 -999 210 -999
2006-09-06 04:44:40 51°13.597 2°56.094 125.5 -999 193 -999
2006-09-06 04:44:45 51°13.597 2°56.094 125.5 -999 220 -999
2006-09-06 04:44:50 51°13.597 2°56.094 125.5 -999 176 -999
2006-09-06 04:44:55 51°13.597 2°56.094 125.5 -999 257 -999
2006-09-06 04:45:00 51°13.597 2°56.094 125.5 -999 243 -999
2006-09-06 04:45:05 51°13.597 2°56.094 125.5 -999 217 -999
2006-09-06 04:45:10 51°13.597 2°56.094 125.5 -999 230 -999
2006-09-06 04:45:15 51°13.597 2°56.094 125.5 -999 152 -999
2006-09-06 04:45:20 51°13.597 2°56.094 125.5 -999 243 -999
2006-09-06 04:45:25 51°13.597 2°56.094 125.5 -999 212 -999
2006-09-06 04:45:30 51°13.597 2°56.094 125.5 -999 51 -999
2006-09-06 04:45:35 51°13.597 2°56.094 125.5 -999 33 -999
2006-09-06 04:45:40 51°13.597 2°56.094 125.5 -999 22 -999
2006-09-06 04:45:45 51°13.597 2°56.094 125.5 -999 137 -999
2006-09-06 04:45:50 51°13.597 2°56.094 125.5 -999 223 -999
2006-09-06 04:45:55 51°13.597 2°56.094 125.5 0.1 214 -999
2006-09-06 04:46:00 51°13.597 2°56.094 125.5 -999 177 -999
2006-09-06 04:46:05 51°13.597 2°56.094 125.5 -999 44 -999
2006-09-06 04:46:10 51°13.597 2°56.094 125.5 -999 64 -999
2006-09-06 04:46:15 51°13.597 2°56.095 125.5 -999 251 -999
2006-09-06 04:46:19 51°13.598 2°56.095 125.5 -999 34 5.8
2006-09-06 04:46:22 51°13.598 2°56.095 125.5 -999 15 5.7
2006-09-06 04:46:26 51°13.598 2°56.095 125.5 -999 128 5.8
2006-09-06 04:46:31 51°13.598 2°56.095 125.5 -999 77 5.9
2006-09-06 04:46:36 51°13.598 2°56.095 125.5 -999 18 5.8
2006-09-06 04:46:40 51°13.598 2°56.095 125.5 -999 117 6
2006-09-06 04:46:46 51°13.598 2°56.095 125.5 -999 128 5.7
2006-09-06 04:46:51 51°13.597 2°56.094 125.5 -999 305 5.8
2006-09-06 04:46:56 51°13.597 2°56.094 125.5 -999 222 5.8
2006-09-06 04:46:59 51°13.597 2°56.094 125.5 -999 176 5.8
2006-09-06 04:47:06 51°13.597 2°56.094 125.5 -999 162 5.7
2006-09-06 04:47:10 51°13.597 2°56.094 125.5 -999 198 5.8
2006-09-06 04:47:16 51°13.597 2°56.094 125.5 -999 68 5.8
2006-09-06 04:47:21 51°13.597 2°56.094 125.5 -999 237 5.7
2006-09-06 04:47:26 51°13.597 2°56.094 125.5 -999 338 5.8
2006-09-06 04:47:31 51°13.597 2°56.094 125.5 -999 13 5.9
2006-09-06 04:47:36 51°13.597 2°56.094 125.5 -999 48 5.9
2006-09-06 04:47:40 51°13.597 2°56.094 125.5 -999 237 5.6
2006-09-06 04:47:46 51°13.597 2°56.094 125.5 -999 9 5.7
2006-09-06 04:47:51 51°13.597 2°56.094 125.5 -999 161 5.8
2006-09-06 04:47:56 51°13.597 2°56.094 125.5 -999 25 5.8
2006-09-06 04:48:01 51°13.597 2°56.094 125.5 -999 211 5.6
2006-09-06 04:48:06 51°13.597 2°56.094 125.5 -999 188 5.6
2006-09-06 04:48:11 51°13.597 2°56.094 125.5 -999 341 5.7
2006-09-06 04:48:16 51°13.598 2°56.094 125.5 -999 33 5.6
2006-09-06 04:48:20 51°13.597 2°56.094 125.5 -999 223 5.8
2006-09-06 04:48:25 51°13.597 2°56.094 125.5 -999 237 5.9
2006-09-06 04:48:30 51°13.597 2°56.094 125.5 -999 185 5.6
2006-09-06 04:48:36 51°13.597 2°56.094 125.5 -999 49 5.7
2006-09-06 04:48:40 51°13.597 2°56.094 125.5 -999 45 5.7
2006-09-06 04:48:45 51°13.597 2°56.094 125.5 -999 159 5.8
2006-09-06 04:48:51 51°13.598 2°56.094 125.5 -999 227 5.8
2006-09-06 04:48:56 51°13.598 2°56.094 125.5 -999 248 5.8
2006-09-06 04:49:01 51°13.598 2°56.095 125.5 -999 223 5.8
2006-09-06 04:49:06 51°13.598 2°56.095 125.5 -999 253 5.8
2006-09-06 04:49:10 51°13.598 2°56.095 125.5 -999 237 5.7
2006-09-06 04:49:16 51°13.598 2°56.095 125.5 -999 198 5.7
2006-09-06 04:49:21 51°13.598 2°56.095 125.5 -999 127 5.7
2006-09-06 04:49:26 51°13.598 2°56.095 125.5 -999 168 5.7
2006-09-06 04:49:31 51°13.598 2°56.095 125.5 -999 201 5.7
2006-09-06 04:49:36 51°13.598 2°56.095 125.5 -999 198 5.9
2006-09-06 04:49:40 51°13.598 2°56.095 125.5 -999 202 5.7
2006-09-06 04:49:46 51°13.598 2°56.095 125.5 -999 181 5.8
2006-09-06 04:49:51 51°13.597 2°56.095 125.5 -999 227 5.8
2006-09-06 04:49:56 51°13.597 2°56.095 125.5 -999 28 5.7
2006-09-06 04:50:01 51°13.597 2°56.095 125.5 -999 208 5.7
2006-09-06 04:50:06 51°13.597 2°56.095 125.5 -999 248 5.7
2006-09-06 04:50:11 51°13.597 2°56.095 125.5 -999 194 5.8
2006-09-06 04:50:16 51°13.597 2°56.095 125.5 -999 314 5.9
2006-09-06 04:50:20 51°13.597 2°56.095 125.5 -999 58 5.7
2006-09-06 04:50:26 51°13.597 2°56.095 125.5 -999 257 5.7
2006-09-06 04:50:31 51°13.597 2°56.096 125.5 -999 190 5.7
2006-09-06 04:50:36 51°13.597 2°56.096 125.5 -999 150 5.7
2006-09-06 04:50:40 51°13.597 2°56.096 125.5 -999 245 5.6
2006-09-06 04:50:45 51°13.597 2°56.096 125.5 -999 66 5.6
2006-09-06 04:50:51 51°13.597 2°56.096 125.5 -999 239 5.7
2006-09-06 04:50:56 51°13.597 2°56.096 125.5 -999 346 5.7
2006-09-06 04:51:00 51°13.597 2°56.096 125.5 -999 42 5.6
2006-09-06 04:51:06 51°13.597 2°56.096 125.5 -999 359 5.6
2006-09-06 04:51:11 51°13.597 2°56.095 125.5 -999 17 5.7
2006-09-06 04:51:16 51°13.597 2°56.095 125.5 -999 123 5.7
2006-09-06 04:51:21 51°13.597 2°56.095 125.5 -999 204 5.6
2006-09-06 04:51:26 51°13.597 2°56.095 125.5 -999 4 5.6
2006-09-06 04:51:30 51°13.597 2°56.095 125.5 -999 83 5.7
2006-09-06 04:51:36 51°13.597 2°56.095 125.5 -999 112 5.7
2006-09-06 04:51:40 51°13.597 2°56.095 125.5 -999 138 5.7
2006-09-06 04:51:46 51°13.597 2°56.095 125.5 -999 177 5.7
2006-09-06 04:51:51 51°13.597 2°56.095 125.5 -999 213 5.7
2006-09-06 04:51:56 51°13.597 2°56.096 125.5 -999 57 5.7
2006-09-06 04:52:00 51°13.597 2°56.096 125.5 -999 128 5.7
2006-09-06 04:52:06 51°13.598 2°56.096 125.5 -999 339 5.6
2006-09-06 04:52:11 51°13.598 2°56.096 125.5 -999 33 5.6
2006-09-06 04:52:16 51°13.598 2°56.096 125.5 -999 87 5.6
2006-09-06 04:52:20 51°13.598 2°56.096 125.5 -999 101 5.7
2006-09-06 04:52:26 51°13.598 2°56.096 125.5 -999 154 5.7
2006-09-06 04:52:30 51°13.597 2°56.096 125.5 -999 271 6
2006-09-06 04:52:35 51°13.597 2°56.096 125.5 -999 244 5.8
2006-09-06 04:52:41 51°13.597 2°56.096 125.5 -999 234 5.8
2006-09-06 04:52:46 51°13.598 2°56.096 125.5 -999 356 5.9
2006-09-06 04:52:51 51°13.597 2°56.096 125.5 -999 264 5.8
2006-09-06 04:52:56 51°13.597 2°56.096 125.5 -999 280 5.7
2006-09-06 04:53:01 51°13.597 2°56.096 125.5 -999 318 5.8
2006-09-06 04:53:06 51°13.597 2°56.096 125.5 -999 273 5.7
2006-09-06 04:53:11 51°13.598 2°56.096 125.5 -999 296 5.9
2006-09-06 04:53:16 51°13.598 2°56.096 125.5 -999 263 5.7
2006-09-06 04:53:21 51°13.598 2°56.097 125.5 -999 256 5.7
2006-09-06 04:53:26 51°13.598 2°56.096 125.3 -999 219 5.6
2006-09-06 04:53:31 51°13.598 2°56.096 125.3 -999 212 5.6
2006-09-06 04:53:36 51°13.598 2°56.097 125.3 -999 75 5.6
2006-09-06 04:53:41 51°13.598 2°56.097 125.3 -999 61 5.7
2006-09-06 04:53:46 51°13.598 2°56.097 125.3 -999 263 5.8
2006-09-06 04:53:51 51°13.598 2°56.097 125.3 -999 61 5.8
2006-09-06 04:53:56 51°13.598 2°56.097 125.3 -999 48 5.7
2006-09-06 04:54:01 51°13.598 2°56.097 125.3 -999 89 5.7
2006-09-06 04:54:06 51°13.598 2°56.096 125.3 -999 183 5.8
2006-09-06 04:54:11 51°13.598 2°56.096 125.4 -999 231 5.7
2006-09-06 04:54:16 51°13.598 2°56.096 125.5 -999 268 5.8
2006-09-06 04:54:20 51°13.598 2°56.096 125.5 0.1 327 6
2006-09-06 04:54:26 51°13.598 2°56.096 125.5 0.1 317 5.7
2006-09-06 04:54:31 51°13.598 2°56.096 125.3 -999 288 5.7
2006-09-06 04:54:36 51°13.598 2°56.096 125.1 -999 300 5.6
2006-09-06 04:54:40 51°13.598 2°56.096 124.9 -999 263 5.7
2006-09-06 04:54:46 51°13.598 2°56.096 124.8 -999 262 5.7
2006-09-06 04:54:51 51°13.598 2°56.096 124.8 -999 214 6
2006-09-06 04:54:56 51°13.598 2°56.096 124.8 -999 245 5.7
2006-09-06 04:55:01 51°13.598 2°56.096 124.8 -999 11 5.6
2006-09-06 04:55:06 51°13.598 2°56.096 124.8 -999 181 5.7
2006-09-06 04:55:10 51°13.598 2°56.096 124.8 -999 187 5.7
2006-09-06 04:55:15 51°13.598 2°56.096 124.8 -999 148 5.6
2006-09-06 04:55:21 51°13.598 2°56.096 124.8 -999 135 5.7
2006-09-06 04:55:26 51°13.598 2°56.096 124.8 -999 172 5.7
2006-09-06 04:55:31 51°13.598 2°56.096 124.9 -999 89 5.8
2006-09-06 04:55:36 51°13.598 2°56.096 125.1 -999 125 5.7
2006-09-06 04:55:40 51°13.598 2°56.096 125.3 -999 229 5.8
2006-09-06 04:55:45 51°13.598 2°56.096 125.3 -999 242 5.6
2006-09-06 04:55:51 51°13.598 2°56.096 125.3 -999 37 5.7
2006-09-06 04:55:56 51°13.598 2°56.096 125.3 -999 99 5.7
2006-09-06 04:56:01 51°13.598 2°56.096 125.1 0.1 159 5.6
2006-09-06 04:56:06 51°13.598 2°56.096 125 0.1 132 5.7
2006-09-06 04:56:11 51°13.598 2°56.096 125 0.1 134 5.7
2006-09-06 04:56:16 51°13.598 2°56.096 125.1 -999 19 5.6
2006-09-06 04:56:20 51°13.598 2°56.096 125.1 -999 252 5.6
2006-09-06 04:56:26 51°13.598 2°56.096 125.1 -999 251 5.8
2006-09-06 04:56:31 51°13.598 2°56.096 125.1 -999 249 5.7
2006-09-06 04:56:36 51°13.598 2°56.096 125.1 -999 33 5.8
2006-09-06 04:56:39 51°13.598 2°56.096 125.1 -999 330 5.8
2006-09-06 04:56:46 51°13.598 2°56.096 125.2 -999 312 5.7
2006-09-06 04:56:50 51°13.598 2°56.096 125.3 -999 17 5.8
2006-09-06 04:56:56 51°13.598 2°56.096 125.5 -999 71 5.8
2006-09-06 04:57:00 51°13.598 2°56.096 125.5 -999 150 5.8
2006-09-06 04:57:06 51°13.598 2°56.096 125.5 -999 44 5.8
2006-09-06 04:57:11 51°13.598 2°56.096 125.5 -999 17 5.6
2006-09-06 04:57:16 51°13.598 2°56.095 125.4 -999 322 5.7
2006-09-06 04:57:20 51°13.598 2°56.095 125.3 -999 349 5.7
2006-09-06 04:57:23 51°13.598 2°56.095 125.3 -999 145 5.6
2006-09-06 04:57:31 51°13.598 2°56.095 125.3 -999 29 5.6
2006-09-06 04:57:36 51°13.598 2°56.095 125.3 -999 154 5.7
2006-09-06 04:57:41 51°13.598 2°56.095 125.3 -999 237 5.6
2006-09-06 04:57:46 51°13.598 2°56.095 125.3 -999 344 5.7
2006-09-06 04:57:51 51°13.598 2°56.095 125.3 -999 244 5.7
2006-09-06 04:57:56 51°13.598 2°56.094 125.4 -999 272 5.7
2006-09-06 04:58:00 51°13.598 2°56.094 125.5 -999 26 5.7
2006-09-06 04:58:06 51°13.598 2°56.094 125.5 -999 219 5.7
2006-09-06 04:58:10 51°13.598 2°56.094 125.5 -999 39 5.8
2006-09-06 04:58:16 51°13.597 2°56.094 125.5 -999 96 5.7
2006-09-06 04:58:20 51°13.597 2°56.094 125.5 -999 89 5.8
2006-09-06 04:58:26 51°13.598 2°56.094 125.6 -999 251 5.6
2006-09-06 04:58:31 51°13.598 2°56.094 125.6 -999 33 5.7
2006-09-06 04:58:36 51°13.598 2°56.094 125.5 -999 20 5.7
2006-09-06 04:58:41 51°13.597 2°56.094 125.5 -999 214 5.8
2006-09-06 04:58:46 51°13.597 2°56.094 125.5 -999 260 5.7
2006-09-06 04:58:51 51°13.597 2°56.094 125.5 -999 229 5.9
2006-09-06 04:58:56 51°13.597 2°56.094 125.7 -999 347 5.8
2006-09-06 04:59:01 51°13.597 2°56.094 125.7 -999 4 5.9
2006-09-06 04:59:06 51°13.597 2°56.094 125.8 -999 250 5.8
2006-09-06 04:59:11 51°13.597 2°56.094 125.9 -999 37 5.8
2006-09-06 04:59:16 51°13.597 2°56.094 125.9 -999 207 5.8
2006-09-06 04:59:20 51°13.597 2°56.094 126 -999 60 5.9
2006-09-06 04:59:26 51°13.597 2°56.094 126 0.1 62 5.8
2006-09-06 04:59:31 51°13.597 2°56.094 125.5 -999 155 5.7
2006-09-06 04:59:36 51°13.597 2°56.094 124.3 0.1 194 5.7
2006-09-06 04:59:40 51°13.597 2°56.094 123.1 -999 186 5.6
2006-09-06 04:59:46 51°13.597 2°56.094 122 -999 182 5.9
2006-09-06 04:59:51 51°13.597 2°56.094 120.9 0.1 200 5.9
2006-09-06 04:59:56 51°13.597 2°56.094 119.7 0.1 177 5.9
2006-09-06 05:00:00 51°13.597 2°56.094 118.5 0.1 192 5.9
2006-09-06 05:00:06 51°13.597 2°56.094 117.4 0.1 192 6
2006-09-06 05:00:11 51°13.597 2°56.094 116.1 0.1 201 6.1
2006-09-06 05:00:16 51°13.597 2°56.094 114.9 0.1 195 6.1
2006-09-06 05:00:21 51°13.597 2°56.094 113.9 0.1 192 6.1
2006-09-06 05:00:26 51°13.597 2°56.094 112.8 0.1 213 6.1
2006-09-06 05:00:31 51°13.597 2°56.094 111.7 0.1 278 6.1
2006-09-06 05:00:37 51°13.597 2°56.093 111.1 0.2 280 6.1
2006-09-06 05:00:41 51°13.597 2°56.093 110.9 0.3 282 6.2
2006-09-06 05:00:46 51°13.597 2°56.092 110.6 0.4 294 6.2
2006-09-06 05:00:51 51°13.597 2°56.091 110.5 0.5 296 6.1
2006-09-06 05:00:57 51°13.598 2°56.089 110.4 0.8 290 6.2
2006-09-06 05:01:01 51°13.599 2°56.087 110.4 0.9 293 6.1
2006-09-06 05:01:06 51°13.599 2°56.085 110.5 1.2 292 6.2
2006-09-06 05:01:11 51°13.6 2°56.082 110.5 1.3 291 6.2
2006-09-06 05:01:16 51°13.6 2°56.079 110.4 1.5 290 -999
2006-09-06 05:01:21 51°13.601 2°56.076 110.3 1.6 292 -999
2006-09-06 05:01:27 51°13.602 2°56.071 110.1 1.8 290 -999
2006-09-06 05:01:32 51°13.603 2°56.067 110 2 291 -999
2006-09-06 05:01:37 51°13.604 2°56.062 109.9 2.2 289 -999
2006-09-06 05:01:42 51°13.605 2°56.058 109.9 2.3 290 -999
2006-09-06 05:01:47 51°13.607 2°56.053 109.9 2.4 288 -999
2006-09-06 05:01:52 51°13.608 2°56.048 109.9 2.5 289 -999
2006-09-06 05:01:57 51°13.609 2°56.042 109.9 2.5 289 -999
2006-09-06 05:02:02 51°13.61 2°56.037 110.3 2.5 289 -999
2006-09-06 05:02:08 51°13.611 2°56.031 110.8 2.6 289 -999
2006-09-06 05:02:12 51°13.613 2°56.026 111.4 2.6 290 -999
2006-09-06 05:02:17 51°13.614 2°56.021 112 2.6 290 -999
2006-09-06 05:02:22 51°13.615 2°56.015 112.7 2.6 291 -999
2006-09-06 05:02:27 51°13.617 2°56.01 113.3 2.7 292 -999
2006-09-06 05:02:32 51°13.618 2°56.004 113.8 2.7 293 -999
2006-09-06 05:02:37 51°13.619 2°55.999 114.3 2.7 292 -999
2006-09-06 05:02:42 51°13.621 2°55.993 114.7 2.7 293 -999
2006-09-06 05:02:47 51°13.622 2°55.988 115.2 2.8 293 -999
2006-09-06 05:02:52 51°13.624 2°55.982 115.6 2.8 294 -999
2006-09-06 05:02:57 51°13.626 2°55.976 116.2 2.8 293 -999
2006-09-06 05:03:03 51°13.628 2°55.969 116.8 2.9 294 -999
2006-09-06 05:03:07 51°13.629 2°55.965 117.5 2.9 295 -999
2006-09-06 05:03:12 51°13.631 2°55.959 118.5 2.9 296 -999
2006-09-06 05:03:18 51°13.633 2°55.952 119.2 3 296 -999
2006-09-06 05:03:22 51°13.635 2°55.947 119.9 3 298 -999
2006-09-06 05:03:28 51°13.637 2°55.94 120.4 3.1 298 -999
2006-09-06 05:03:32 51°13.639 2°55.935 121.2 3.1 299 -999
2006-09-06 05:03:37 51°13.641 2°55.929 121.7 3.2 299 -999
2006-09-06 05:03:42 51°13.643 2°55.923 122.3 3.2 300 -999
2006-09-06 05:03:48 51°13.646 2°55.915 123.1 3.3 301 -999
2006-09-06 05:03:52 51°13.648 2°55.91 123.7 3.3 302 -999
2006-09-06 05:03:57 51°13.65 2°55.904 124.3 3.3 302 -999
2006-09-06 05:04:02 51°13.653 2°55.898 124.8 3.3 302 -999
2006-09-06 05:04:08 51°13.656 2°55.89 125.6 3.4 303 -999
2006-09-06 05:04:12 51°13.658 2°55.885 126.3 3.4 303 -999
2006-09-06 05:04:17 51°13.661 2°55.879 126.7 3.4 305 -999
2006-09-06 05:04:21 51°13.663 2°55.874 126.7 3.4 305 -999
2006-09-06 05:04:27 51°13.666 2°55.867 126.7 3.4 304 -999
2006-09-06 05:04:33 51°13.669 2°55.859 126.4 3.5 304 -999
2006-09-06 05:04:37 51°13.671 2°55.854 126.2 3.5 304 -999
2006-09-06 05:04:42 51°13.674 2°55.848 125.9 3.5 305 -999
2006-09-06 05:04:47 51°13.677 2°55.841 125.5 3.6 304 -999
2006-09-06 05:04:52 51°13.68 2°55.835 124.8 3.6 304 -999
2006-09-06 05:04:57 51°13.683 2°55.828 124.3 3.6 304 -999
2006-09-06 05:05:03 51°13.686 2°55.821 123.3 3.5 304 -999
2006-09-06 05:05:07 51°13.688 2°55.816 122.6 3.4 304 -999
2006-09-06 05:05:12 51°13.69 2°55.81 121.5 3.3 303 -999
2006-09-06 05:05:17 51°13.692 2°55.804 120.5 3.1 303 -999
2006-09-06 05:05:22 51°13.695 2°55.798 119.8 3 303 -999
2006-09-06 05:05:27 51°13.697 2°55.793 119 2.9 302 8.8
2006-09-06 05:05:32 51°13.699 2°55.788 118.3 2.8 303 9.7
2006-09-06 05:05:37 51°13.701 2°55.783 117.4 2.7 303 10.3
2006-09-06 05:05:41 51°13.703 2°55.779 116.2 2.6 302 10.8
2006-09-06 05:05:47 51°13.705 2°55.773 114.9 2.5 301 11.4
2006-09-06 05:05:52 51°13.706 2°55.769 113.9 2.4 301 11.9
2006-09-06 05:05:57 51°13.708 2°55.765 112.6 2.2 300 12.2
2006-09-06 05:06:02 51°13.709 2°55.762 111 1.8 301 12.3
2006-09-06 05:06:07 51°13.71 2°55.76 109.1 1.3 304 12.4
2006-09-06 05:06:11 51°13.711 2°55.759 106.6 0.8 315 12.3
2006-09-06 05:06:17 51°13.711 2°55.758 102.8 0.6 342 12.1
2006-09-06 05:06:21 51°13.712 2°55.759 98.2 0.6 20 12.1
2006-09-06 05:06:27 51°13.713 2°55.76 93 0.8 43 12.1
2006-09-06 05:06:32 51°13.714 2°55.762 87.6 1 52 12.2
2006-09-06 05:06:37 51°13.715 2°55.764 81.7 1 51 12
2006-09-06 05:06:41 51°13.716 2°55.765 76 1.1 42 11.7
2006-09-06 05:06:45 51°13.717 2°55.766 71.4 0.8 40 11.1
2006-09-06 05:06:52 51°13.718 2°55.767 68.9 0.7 22 10.8
2006-09-06 05:06:57 51°13.718 2°55.766 65.1 0.5 1 10.7
2006-09-06 05:07:01 51°13.718 2°55.766 62 0.4 331 10.7
2006-09-06 05:07:07 51°13.719 2°55.764 59.5 0.5 292 10.9
2006-09-06 05:07:11 51°13.719 2°55.763 57.6 0.7 275 10.9
2006-09-06 05:07:17 51°13.718 2°55.761 55 0.9 265 11
2006-09-06 05:07:22 51°13.718 2°55.758 53.3 1.1 256 11.3
2006-09-06 05:07:27 51°13.717 2°55.756 50.7 1.3 249 11.4
2006-09-06 05:07:32 51°13.716 2°55.753 49 1.5 244 -999
2006-09-06 05:07:38 51°13.715 2°55.749 45.8 1.6 239 -999
2006-09-06 05:07:42 51°13.714 2°55.747 43.4 1.6 237 -999
2006-09-06 05:07:47 51°13.713 2°55.744 41.3 1.4 236 -999
2006-09-06 05:07:52 51°13.712 2°55.742 39.5 1.3 237 -999
2006-09-06 05:07:58 51°13.711 2°55.74 37.4 1.1 237 -999
2006-09-06 05:08:02 51°13.711 2°55.739 34.8 0.7 243 -999
2006-09-06 05:08:07 51°13.711 2°55.737 31.9 0.5 250 -999
2006-09-06 05:08:12 51°13.711 2°55.737 28.3 0.4 273 -999
2006-09-06 05:08:17 51°13.711 2°55.736 24.7 0.4 308 -999
2006-09-06 05:08:22 51°13.712 2°55.736 20.2 0.5 340 -999
2006-09-06 05:08:28 51°13.714 2°55.736 16.6 0.8 351 -999
2006-09-06 05:08:32 51°13.715 2°55.735 11.4 1 351 -999
2006-09-06 05:08:37 51°13.717 2°55.735 5.7 1.3 347 -999
2006-09-06 05:08:42 51°13.719 2°55.734 359.6 1.4 343 -999
2006-09-06 05:08:47 51°13.721 2°55.732 353.3 1.7 339 10.6
2006-09-06 05:08:52 51°13.724 2°55.73 348 2.3 336 4.9
2006-09-06 05:08:57 51°13.728 2°55.728 341.6 2.8 333 10.1
2006-09-06 05:09:02 51°13.732 2°55.724 336.5 3.1 331 9.6
2006-09-06 05:09:06 51°13.735 2°55.72 333.8 3.8 327 8.9
2006-09-06 05:09:11 51°13.74 2°55.715 332.3 4.1 328 8.8
2006-09-06 05:09:17 51°13.747 2°55.708 331 4.6 326 8.6
2006-09-06 05:09:21 51°13.751 2°55.704 330.7 4.8 329 8.5
2006-09-06 05:09:27 51°13.758 2°55.697 331.1 5.1 327 8.6
2006-09-06 05:09:31 51°13.763 2°55.692 331.5 5.2 328 8.7
2006-09-06 05:09:37 51°13.771 2°55.684 331.4 5.4 327 8.7
2006-09-06 05:09:40 51°13.775 2°55.68 331.2 5.5 328 8.7
2006-09-06 05:09:47 51°13.785 2°55.671 331.6 5.8 329 8.8
2006-09-06 05:09:52 51°13.792 2°55.665 333 5.8 330 8.9
2006-09-06 05:09:57 51°13.799 2°55.659 334.4 5.8 333 9
2006-09-06 05:10:01 51°13.805 2°55.654 334.5 5.8 332 9.2
2006-09-06 05:10:07 51°13.813 2°55.648 334.9 5.7 334 9.1
2006-09-06 05:10:11 51°13.819 2°55.643 335.5 5.6 333 9.3
2006-09-06 05:10:17 51°13.827 2°55.637 336.4 5.5 335 9.4
2006-09-06 05:10:22 51°13.834 2°55.632 337.1 5.5 335 9.4
2006-09-06 05:10:27 51°13.841 2°55.627 337.7 5.4 336 9.2
2006-09-06 05:10:32 51°13.847 2°55.622 338.3 5.3 335 9.1
2006-09-06 05:10:37 51°13.854 2°55.617 338.3 5.3 336 8.9
2006-09-06 05:10:41 51°13.859 2°55.614 338.1 5.3 334 8.6
2006-09-06 05:10:47 51°13.867 2°55.608 337.7 5.2 334 8.8
2006-09-06 05:10:52 51°13.874 2°55.603 337.6 5.2 335 8.7
2006-09-06 05:10:57 51°13.88 2°55.598 337.5 5.1 334 8.7
2006-09-06 05:11:02 51°13.886 2°55.593 337.5 5 334 8.9
2006-09-06 05:11:07 51°13.892 2°55.589 337.5 4.9 334 9.1
2006-09-06 05:11:10 51°13.896 2°55.586 337.6 4.8 335 9.2
2006-09-06 05:11:17 51°13.904 2°55.58 337.5 4.7 334 9.1
2006-09-06 05:11:21 51°13.908 2°55.576 336.9 4.5 334 9.3
2006-09-06 05:11:27 51°13.914 2°55.571 336.4 4.2 333 9.7
2006-09-06 05:11:32 51°13.919 2°55.567 335.8 4.1 332 9.5
2006-09-06 05:11:37 51°13.924 2°55.563 335.1 3.9 331 9.4
2006-09-06 05:11:41 51°13.928 2°55.559 334.4 3.8 330 9.9
2006-09-06 05:11:47 51°13.933 2°55.554 334 3.8 331 9.7
2006-09-06 05:11:52 51°13.938 2°55.551 334 3.9 332 9.7
2006-09-06 05:11:57 51°13.943 2°55.546 334.5 4 332 9.4
2006-09-06 05:12:01 51°13.947 2°55.543 335.4 4.1 333 9.6
2006-09-06 05:12:07 51°13.954 2°55.539 336.7 4.2 335 9.5
2006-09-06 05:12:11 51°13.958 2°55.535 337.6 4.3 335 9.3
2006-09-06 05:12:17 51°13.965 2°55.531 338 4.4 335 9.3
2006-09-06 05:12:21 51°13.97 2°55.527 337.8 4.7 335 9.1
2006-09-06 05:12:27 51°13.977 2°55.521 337.4 5 336 9.2
2006-09-06 05:12:30 51°13.981 2°55.519 337.4 5.2 335 9.1
2006-09-06 05:12:37 51°13.991 2°55.512 338.1 5.4 336 9.2
2006-09-06 05:12:42 51°13.998 2°55.506 338.8 5.7 337 9.1
2006-09-06 05:12:47 51°14.006 2°55.501 338.5 5.9 335 8.9
2006-09-06 05:12:52 51°14.013 2°55.495 338.3 6.1 336 8.6
2006-09-06 05:12:57 51°14.022 2°55.489 338.4 6.4 335 8.9
2006-09-06 05:13:01 51°14.029 2°55.485 339 6.7 337 8.9
2006-09-06 05:13:07 51°14.039 2°55.477 339.9 6.8 337 8.6
2006-09-06 05:13:11 51°14.046 2°55.473 340.8 7 339 8.9
2006-09-06 05:13:17 51°14.057 2°55.465 341 7.2 335 9
2006-09-06 05:13:21 51°14.065 2°55.461 341.7 7.3 340 9
2006-09-06 05:13:27 51°14.077 2°55.454 341.9 7.5 338 9
2006-09-06 05:13:32 51°14.087 2°55.448 341.9 7.6 340 9
2006-09-06 05:13:37 51°14.097 2°55.442 342 7.7 339 8.9
2006-09-06 05:13:42 51°14.107 2°55.436 341.8 7.7 339 9
2006-09-06 05:13:47 51°14.117 2°55.429 341.4 7.8 339 9
2006-09-06 05:13:51 51°14.125 2°55.424 340.9 7.9 338 9
2006-09-06 05:13:57 51°14.137 2°55.416 340.9 8 337 9
2006-09-06 05:14:01 51°14.146 2°55.41 341.2 8.1 338 9
2006-09-06 05:14:07 51°14.158 2°55.402 341.5 8.2 337 9
2006-09-06 05:14:11 51°14.167 2°55.395 340.5 8.3 336 9
2006-09-06 05:14:17 51°14.179 2°55.386 338.9 8.3 335 9.1
2006-09-06 05:14:21 51°14.187 2°55.379 337.6 8.4 334 9
2006-09-06 05:14:27 51°14.2 2°55.369 337.1 8.4 333 9
2006-09-06 05:14:31 51°14.208 2°55.362 336.4 8.4 332 9
2006-09-06 05:14:37 51°14.22 2°55.35 334.3 8.5 329 9
2006-09-06 05:14:42 51°14.229 2°55.34 330.9 8.4 326 9
2006-09-06 05:14:47 51°14.238 2°55.328 327 8.4 321 9
2006-09-06 05:14:52 51°14.247 2°55.315 322.9 8.3 317 9
2006-09-06 05:14:57 51°14.255 2°55.302 319.5 8.4 315 9
2006-09-06 05:15:00 51°14.26 2°55.294 317.1 8.4 313 9
2006-09-06 05:15:07 51°14.271 2°55.274 315 8.4 312 9
2006-09-06 05:15:12 51°14.278 2°55.26 313.5 8.5 310 9
2006-09-06 05:15:17 51°14.285 2°55.245 312.7 8.5 309 9
2006-09-06 05:15:21 51°14.291 2°55.233 311.7 8.5 308 8.8
2006-09-06 05:15:27 51°14.3 2°55.215 310.6 8.5 307 9
2006-09-06 05:15:32 51°14.307 2°55.2 309.3 8.6 306 9
2006-09-06 05:15:36 51°14.312 2°55.187 308.7 8.7 306 9.1
2006-09-06 05:15:41 51°14.32 2°55.172 308.9 8.7 307 9.1
2006-09-06 05:15:47 51°14.328 2°55.152 308.5 8.9 305 8.8
2006-09-06 05:15:51 51°14.334 2°55.14 308.1 8.9 306 9.1
2006-09-06 05:15:57 51°14.343 2°55.12 308.4 9 305 8.8
2006-09-06 05:16:01 51°14.349 2°55.107 309.1 9.1 306 9
2006-09-06 05:16:07 51°14.358 2°55.086 308.7 9.3 304 9.1
2006-09-06 05:16:12 51°14.365 2°55.069 307.7 9.4 303 9.1
2006-09-06 05:16:17 51°14.371 2°55.051 305.5 9.4 299 9.3
2006-09-06 05:16:21 51°14.376 2°55.036 302 9.5 297 9.1
2006-09-06 05:16:27 51°14.383 2°55.013 299.9 9.6 296 9.1
2006-09-06 05:16:31 51°14.387 2°54.998 298.7 9.6 295 9.1
2006-09-06 05:16:37 51°14.394 2°54.974 298 9.7 294 9.2
2006-09-06 05:16:42 51°14.399 2°54.954 297.3 9.8 293 9.2
2006-09-06 05:16:47 51°14.405 2°54.933 297 10 293 9.3
2006-09-06 05:16:52 51°14.41 2°54.912 297.2 10.3 293 9.5
2006-09-06 05:16:57 51°14.416 2°54.891 297.1 10.4 293 9.5
2006-09-06 05:17:01 51°14.42 2°54.873 296.8 10.7 292 9.4
2006-09-06 05:17:05 51°14.425 2°54.856 297.5 11 294 9.4
2006-09-06 05:17:11 51°14.433 2°54.828 298.4 11.2 293 9.5
2006-09-06 05:17:16 51°14.439 2°54.806 298.9 11.3 294 9.2
2006-09-06 05:17:22 51°14.446 2°54.778 298.6 11.4 292 9.2
2006-09-06 05:17:27 51°14.452 2°54.753 297.5 11.6 291 9.2
2006-09-06 05:17:31 51°14.457 2°54.735 297.9 11.7 293 9.2
2006-09-06 05:17:37 51°14.464 2°54.706 298.6 11.7 292 9.2
2006-09-06 05:17:41 51°14.469 2°54.686 297.8 11.8 291 9
2006-09-06 05:17:47 51°14.476 2°54.657 296.8 11.9 291 9.3
2006-09-06 05:17:52 51°14.483 2°54.633 297.9 11.9 292 9.3
2006-09-06 05:17:57 51°14.489 2°54.608 298.4 11.9 291 9.2
2006-09-06 05:18:01 51°14.493 2°54.588 296.9 12 290 9.3
2006-09-06 05:18:07 51°14.5 2°54.558 296.2 12 290 9.3
2006-09-06 05:18:12 51°14.505 2°54.533 295.8 12.1 289 9.1
2006-09-06 05:18:17 51°14.511 2°54.508 295.6 12.1 290 9.4
2006-09-06 05:18:22 51°14.517 2°54.483 295.7 12.2 289 9.3
2006-09-06 05:18:27 51°14.523 2°54.457 295.7 12.2 289 9.3
2006-09-06 05:18:31 51°14.527 2°54.436 295.4 12.3 289 9.4
2006-09-06 05:18:37 51°14.534 2°54.406 295.8 12.3 290 9.6
2006-09-06 05:18:41 51°14.539 2°54.386 296.4 12.3 291 9.6
2006-09-06 05:18:47 51°14.547 2°54.356 297.2 12.3 292 9.6
2006-09-06 05:18:51 51°14.552 2°54.335 298.4 12.3 292 9.7
2006-09-06 05:18:57 51°14.559 2°54.305 298.7 12.4 292 9.5
2006-09-06 05:19:02 51°14.566 2°54.279 298 12.4 291 9.2
2006-09-06 05:19:06 51°14.57 2°54.258 296.8 12.5 290 9.5
2006-09-06 05:19:11 51°14.576 2°54.232 296.1 12.5 290 9.7
2006-09-06 05:19:17 51°14.584 2°54.201 296.2 12.5 290 9.7
2006-09-06 05:19:22 51°14.59 2°54.175 297.2 12.5 291 9.7
2006-09-06 05:19:27 51°14.596 2°54.149 297.5 12.6 290 9.6
2006-09-06 05:19:31 51°14.601 2°54.128 296.8 12.6 290 9.2
2006-09-06 05:19:37 51°14.608 2°54.097 296.5 12.6 291 9.5
2006-09-06 05:19:41 51°14.614 2°54.076 297.5 12.6 292 9.7
2006-09-06 05:19:47 51°14.622 2°54.046 299 12.5 293 9.6
2006-09-06 05:19:51 51°14.628 2°54.025 299.1 12.5 292 9.9
2006-09-06 05:19:57 51°14.635 2°53.995 298.7 12.5 292 9.6
2006-09-06 05:20:01 51°14.641 2°53.974 298.3 12.5 293 9.8
2006-09-06 05:20:06 51°14.647 2°53.948 297 12.6 291 9.6
2006-09-06 05:20:12 51°14.655 2°53.918 296.9 12.5 293 9.5
2006-09-06 05:20:17 51°14.662 2°53.892 297.7 12.5 293 9.5
2006-09-06 05:20:21 51°14.667 2°53.872 298.8 12.4 294 9.5
2006-09-06 05:20:27 51°14.676 2°53.842 299.4 12.4 293 9.4
2006-09-06 05:20:32 51°14.682 2°53.817 298.4 12.4 292 9.2
2006-09-06 05:20:37 51°14.688 2°53.791 297.5 12.4 291 9.2
2006-09-06 05:20:42 51°14.694 2°53.766 297 12.3 291 9
2006-09-06 05:20:47 51°14.7 2°53.741 296.4 12.3 291 8.8
2006-09-06 05:20:50 51°14.704 2°53.725 295.7 12.3 290 8.8
2006-09-06 05:20:57 51°14.712 2°53.689 295.2 12.3 290 8.9
2006-09-06 05:21:01 51°14.716 2°53.669 295 12.3 289 8.9
2006-09-06 05:21:07 51°14.723 2°53.638 294.6 12.4 289 9
2006-09-06 05:21:12 51°14.729 2°53.612 294.7 12.4 290 9
2006-09-06 05:21:17 51°14.736 2°53.587 295.8 12.3 291 9
2006-09-06 05:21:21 51°14.74 2°53.567 296.4 12.4 291 9
2006-09-06 05:21:27 51°14.749 2°53.537 297.6 12.4 293 9.1
2006-09-06 05:21:31 51°14.754 2°53.516 298.6 12.4 293 9.2
2006-09-06 05:21:37 51°14.762 2°53.486 299.5 12.4 294 9
2006-09-06 05:21:42 51°14.769 2°53.461 299.8 12.4 294 9
2006-09-06 05:21:47 51°14.776 2°53.436 300 12.4 294 9
2006-09-06 05:21:52 51°14.783 2°53.411 300.1 12.4 294 9.1
2006-09-06 05:21:56 51°14.789 2°53.391 300.2 12.4 294 9.1
2006-09-06 05:22:01 51°14.795 2°53.366 300.2 12.4 294 9
2006-09-06 05:22:07 51°14.804 2°53.335 300 12.4 293 9
2006-09-06 05:22:12 51°14.81 2°53.31 299.7 12.5 293 9.2
2006-09-06 05:22:16 51°14.816 2°53.29 299.8 12.5 294 9.3
2006-09-06 05:22:21 51°14.823 2°53.265 300 12.5 293 9.4
2006-09-06 05:22:27 51°14.831 2°53.235 300.1 12.5 294 9.4
2006-09-06 05:22:32 51°14.838 2°53.21 300.4 12.4 294 9.3
2006-09-06 05:22:37 51°14.845 2°53.184 300.3 12.4 294 9.5
2006-09-06 05:22:42 51°14.852 2°53.16 300.6 12.4 295 9.3
2006-09-06 05:22:46 51°14.858 2°53.139 301.2 12.5 295 9.3
2006-09-06 05:22:50 51°14.864 2°53.12 302 12.4 296 9.4
2006-09-06 05:22:57 51°14.875 2°53.085 302.5 12.5 296 9.4
2006-09-06 05:23:00 51°14.88 2°53.07 302.6 12.5 296 9.2
2006-09-06 05:23:07 51°14.89 2°53.036 302.9 12.4 296 9.5
2006-09-06 05:23:12 51°14.898 2°53.011 303.2 12.4 296 9.2
2006-09-06 05:23:17 51°14.905 2°52.987 303 12.4 296 9.4
2006-09-06 05:23:21 51°14.912 2°52.967 303 12.5 296 9.5
2006-09-06 05:23:27 51°14.921 2°52.937 302.8 12.5 296 9.4
2006-09-06 05:23:31 51°14.927 2°52.917 302.7 12.5 295 9.3
2006-09-06 05:23:36 51°14.934 2°52.892 302.4 12.5 295 9.3
2006-09-06 05:23:41 51°14.941 2°52.867 302 12.5 295 9.3
2006-09-06 05:23:47 51°14.95 2°52.837 301.6 12.5 294 9.3
2006-09-06 05:23:51 51°14.956 2°52.817 301.7 12.5 295 9.3
2006-09-06 05:23:57 51°14.965 2°52.787 302.3 12.5 296 9.2
2006-09-06 05:24:02 51°14.972 2°52.763 302.4 12.5 296 9.3
2006-09-06 05:24:07 51°14.98 2°52.737 302.7 12.5 296 9.4
2006-09-06 05:24:12 51°14.988 2°52.713 303 12.6 296 9.6
2006-09-06 05:24:17 51°14.995 2°52.688 303.3 12.5 296 9.6
2006-09-06 05:24:21 51°15.002 2°52.668 303.4 12.5 296 9.3
2006-09-06 05:24:26 51°15.009 2°52.643 303.2 12.6 296 9.3
2006-09-06 05:24:32 51°15.018 2°52.613 303.1 12.5 295 9.3
2006-09-06 05:24:37 51°15.025 2°52.587 302.7 12.6 295 9.3
2006-09-06 05:24:41 51°15.031 2°52.567 302.6 12.5 295 9.3
2006-09-06 05:24:46 51°15.039 2°52.542 302.7 12.6 296 9.2
2006-09-06 05:24:51 51°15.046 2°52.517 302.8 12.5 296 9.2
2006-09-06 05:24:57 51°15.056 2°52.487 303.5 12.5 296 9.3
2006-09-06 05:25:01 51°15.062 2°52.468 304 12.5 297 9.3
2006-09-06 05:25:07 51°15.071 2°52.438 304.2 12.5 297 9.3
2006-09-06 05:25:12 51°15.08 2°52.413 304.2 12.6 297 9.3
2006-09-06 05:25:17 51°15.087 2°52.389 304.8 12.5 298 9.4
2006-09-06 05:25:21 51°15.094 2°52.369 304.9 12.6 298 9.4
2006-09-06 05:25:27 51°15.103 2°52.34 304.8 12.6 297 9.5
2006-09-06 05:25:31 51°15.11 2°52.32 304.8 12.6 298 9.5
2006-09-06 05:25:37 51°15.119 2°52.29 304.7 12.6 298 9.5
2006-09-06 05:25:42 51°15.127 2°52.266 304.8 12.6 297 9.5
2006-09-06 05:25:47 51°15.135 2°52.241 305 12.6 298 9.6
2006-09-06 05:25:52 51°15.144 2°52.216 305.2 12.6 298 9.7
2006-09-06 05:25:57 51°15.152 2°52.192 305.6 12.6 299 9.8
2006-09-06 05:26:01 51°15.159 2°52.172 306.1 12.6 298 9.8
2006-09-06 05:26:07 51°15.168 2°52.143 306.1 12.6 298 9.9
2006-09-06 05:26:12 51°15.177 2°52.118 306 12.6 298 9.9
2006-09-06 05:26:17 51°15.185 2°52.094 305.6 12.7 298 10
2006-09-06 05:26:21 51°15.191 2°52.074 305.3 12.7 297 10.1
2006-09-06 05:26:27 51°15.201 2°52.044 305.1 12.6 297 10.1
2006-09-06 05:26:32 51°15.209 2°52.019 304.9 12.7 297 10.1
2006-09-06 05:26:37 51°15.217 2°51.994 304.9 12.6 297 10.1
2006-09-06 05:26:41 51°15.223 2°51.974 304.9 12.7 297 10.3
2006-09-06 05:26:47 51°15.233 2°51.944 304.9 12.7 297 10.4
2006-09-06 05:26:52 51°15.241 2°51.919 304.9 12.7 297 10.4
2006-09-06 05:26:57 51°15.249 2°51.894 304.8 12.7 297 10.5
2006-09-06 05:27:02 51°15.257 2°51.869 304.6 12.7 296 10.6
2006-09-06 05:27:07 51°15.264 2°51.844 304.6 12.7 297 10.6
2006-09-06 05:27:12 51°15.272 2°51.819 304.5 12.6 296 10.6
2006-09-06 05:27:17 51°15.279 2°51.794 304.2 12.6 296 10.6
2006-09-06 05:27:21 51°15.284 2°51.772 300.4 12.7 289 10.6
2006-09-06 05:27:27 51°15.29 2°51.74 296.7 12.8 288 10.7
2006-09-06 05:27:32 51°15.295 2°51.712 294.2 12.8 285 10.8
2006-09-06 05:27:37 51°15.299 2°51.685 292.5 12.9 285 10.8
2006-09-06 05:27:42 51°15.304 2°51.657 292.3 12.8 285 10.9
2006-09-06 05:27:47 51°15.307 2°51.629 290 12.9 281 10.9
2006-09-06 05:27:51 51°15.309 2°51.607 287.7 13 279 10.9
2006-09-06 05:27:57 51°15.312 2°51.572 285.2 13 277 11
2006-09-06 05:28:01 51°15.313 2°51.549 283 13 276 11
2006-09-06 05:28:07 51°15.315 2°51.515 281.7 13.1 275 11
2006-09-06 05:28:12 51°15.316 2°51.486 280.5 13.1 273 11.1
2006-09-06 05:28:17 51°15.317 2°51.457 279.6 13.1 274 11.1
2006-09-06 05:28:21 51°15.318 2°51.434 279.1 13.1 272 11.1
2006-09-06 05:28:27 51°15.319 2°51.4 278.7 13.1 273 11.1
2006-09-06 05:28:31 51°15.319 2°51.377 278.5 13.1 273 11.1
2006-09-06 05:28:37 51°15.321 2°51.342 278.9 13.1 274 11.2
2006-09-06 05:28:42 51°15.322 2°51.313 279.6 13.1 274 11.1
2006-09-06 05:28:47 51°15.324 2°51.285 280.1 13.1 275 11.2
2006-09-06 05:28:52 51°15.326 2°51.256 280.9 13.1 276 11.2
2006-09-06 05:28:56 51°15.327 2°51.233 281.6 13.1 276 11.2
2006-09-06 05:29:01 51°15.329 2°51.204 282.3 13.1 277 11.2
2006-09-06 05:29:07 51°15.333 2°51.17 284.2 13.1 279 11.2
2006-09-06 05:29:11 51°15.335 2°51.147 285.4 13.1 280 11.3
2006-09-06 05:29:17 51°15.339 2°51.113 286.6 13.1 281 11.3
2006-09-06 05:29:20 51°15.341 2°51.096 287.6 13.1 281 11.3
2006-09-06 05:29:25 51°15.345 2°51.067 288 13.1 281 11.4
2006-09-06 05:29:32 51°15.35 2°51.028 288.1 13 281 11.3
2006-09-06 05:29:37 51°15.353 2°50.999 288.1 13.1 281 11.4
2006-09-06 05:29:42 51°15.357 2°50.971 288.1 13.1 281 11.5
2006-09-06 05:29:47 51°15.36 2°50.943 287.7 13.2 280 11.5
2006-09-06 05:29:52 51°15.363 2°50.914 287.4 13.2 280 11.5
2006-09-06 05:29:57 51°15.366 2°50.886 287.2 13.1 280 11.5
2006-09-06 05:30:01 51°15.368 2°50.862 285.9 13.2 278 11.5
2006-09-06 05:30:07 51°15.371 2°50.827 284.2 13.2 276 11.4
2006-09-06 05:30:11 51°15.372 2°50.804 283 13.2 276 11.5
2006-09-06 05:30:17 51°15.375 2°50.769 282.6 13.2 276 11.5
2006-09-06 05:30:21 51°15.376 2°50.746 282.3 13.2 276 11.5
2006-09-06 05:30:27 51°15.378 2°50.711 281.8 13.2 275 11.5
2006-09-06 05:30:30 51°15.379 2°50.694 281.8 13.1 276 11.5
2006-09-06 05:30:37 51°15.382 2°50.653 282.3 13.1 276 11.5
2006-09-06 05:30:42 51°15.385 2°50.625 282.7 13.1 277 11.6
2006-09-06 05:30:47 51°15.387 2°50.596 283.3 13.1 277 11.6
2006-09-06 05:30:52 51°15.389 2°50.567 283.4 13.1 277 11.6
2006-09-06 05:30:57 51°15.391 2°50.538 283.8 13.1 277 11.6
2006-09-06 05:31:00 51°15.393 2°50.521 283.9 13.1 278 11.6
2006-09-06 05:31:07 51°15.396 2°50.481 284 13.2 277 11.6
2006-09-06 05:31:12 51°15.399 2°50.452 284.3 13.1 278 11.6
2006-09-06 05:31:17 51°15.401 2°50.423 284.2 13.1 277 11.6
2006-09-06 05:31:21 51°15.403 2°50.4 283.7 13.1 277 11.7
2006-09-06 05:31:27 51°15.405 2°50.366 283.7 13.1 278 11.6
2006-09-06 05:31:32 51°15.408 2°50.337 283.7 13.1 277 11.6
2006-09-06 05:31:37 51°15.41 2°50.309 283.8 13.1 278 11.6
2006-09-06 05:31:40 51°15.412 2°50.292 284.6 13.1 278 11.6
2006-09-06 05:31:47 51°15.416 2°50.252 285.4 13.1 279 11.7
2006-09-06 05:31:52 51°15.42 2°50.223 286.2 13.1 280 11.6
2006-09-06 05:31:57 51°15.423 2°50.195 287.2 13.1 280 11.6
2006-09-06 05:32:01 51°15.426 2°50.172 287.5 13 281 11.6
2006-09-06 05:32:07 51°15.429 2°50.138 287.4 13.1 280 11.6
2006-09-06 05:32:12 51°15.433 2°50.11 287.4 13 281 11.6
2006-09-06 05:32:17 51°15.436 2°50.082 287.2 13.1 280 11.6
2006-09-06 05:32:22 51°15.44 2°50.053 287.2 13.1 281 11.6
2006-09-06 05:32:27 51°15.443 2°50.025 287.4 13 281 11.6
2006-09-06 05:32:32 51°15.447 2°49.997 287.5 13 281 11.6
2006-09-06 05:32:37 51°15.45 2°49.969 288.1 13 282 11.6
2006-09-06 05:32:40 51°15.452 2°49.952 288.3 13 281 11.7
2006-09-06 05:32:47 51°15.457 2°49.912 288.3 13 281 11.7
2006-09-06 05:32:51 51°15.46 2°49.89 287.4 13 281 11.7
2006-09-06 05:32:57 51°15.464 2°49.856 287.1 13 281 11.7
2006-09-06 05:33:02 51°15.467 2°49.827 286.7 13.1 280 11.7
2006-09-06 05:33:07 51°15.471 2°49.799 287.3 13 282 11.7
2006-09-06 05:33:11 51°15.475 2°49.777 288.6 13 284 11.8
2006-09-06 05:33:17 51°15.481 2°49.744 291.2 12.9 286 11.7
2006-09-06 05:33:22 51°15.486 2°49.717 292.9 12.9 287 11.7
2006-09-06 05:33:27 51°15.491 2°49.689 294.1 12.9 288 11.7
2006-09-06 05:33:32 51°15.497 2°49.662 294.8 12.9 288 11.7
2006-09-06 05:33:36 51°15.502 2°49.641 295.7 12.9 289 11.7
2006-09-06 05:33:41 51°15.508 2°49.614 296.2 12.9 289 11.8
2006-09-06 05:33:47 51°15.514 2°49.581 295.1 12.9 287 11.7
2006-09-06 05:33:51 51°15.517 2°49.559 293.3 12.9 285 11.7
2006-09-06 05:33:57 51°15.523 2°49.525 292.4 12.9 285 11.8
2006-09-06 05:34:01 51°15.526 2°49.503 291.5 12.9 284 11.7
2006-09-06 05:34:07 51°15.531 2°49.47 290.5 13 284 11.7
2006-09-06 05:34:12 51°15.536 2°49.442 290.3 12.9 284 11.7
2006-09-06 05:34:17 51°15.54 2°49.414 289.8 13 283 11.6
2006-09-06 05:34:21 51°15.543 2°49.392 289.4 13 283 11.6
2006-09-06 05:34:27 51°15.549 2°49.359 290.4 12.9 285 11.5
2006-09-06 05:34:31 51°15.553 2°49.337 291.8 12.9 287 11.3
2006-09-06 05:34:36 51°15.558 2°49.31 293.5 12.8 288 11.2
2006-09-06 05:34:40 51°15.563 2°49.288 294.4 12.9 288 11
2006-09-06 05:34:47 51°15.571 2°49.251 295.2 12.8 289 10.8
2006-09-06 05:34:52 51°15.577 2°49.224 296.1 12.8 290 10.7
2006-09-06 05:34:57 51°15.583 2°49.197 296.2 12.8 289 10.5
2006-09-06 05:35:00 51°15.586 2°49.181 296.3 12.8 289 10.3
2006-09-06 05:35:07 51°15.594 2°49.144 296.1 12.7 289 10.1
2006-09-06 05:35:11 51°15.599 2°49.123 295.7 12.7 289 10
2006-09-06 05:35:17 51°15.606 2°49.091 295.6 12.7 289 9.8
2006-09-06 05:35:22 51°15.611 2°49.064 295.4 12.6 289 9.6
2006-09-06 05:35:27 51°15.617 2°49.038 295.7 12.7 289 9.5
2006-09-06 05:35:32 51°15.623 2°49.011 295.7 12.7 288 9.4
2006-09-06 05:35:37 51°15.627 2°48.985 294.5 12.6 287 9.3
2006-09-06 05:35:41 51°15.631 2°48.963 292.6 12.6 285 9.3
2006-09-06 05:35:47 51°15.636 2°48.93 291 12.7 284 9.2
2006-09-06 05:35:52 51°15.641 2°48.904 290.7 12.6 285 9.2
2006-09-06 05:35:57 51°15.645 2°48.876 291.2 12.6 285 9.2
2006-09-06 05:36:01 51°15.649 2°48.855 291.3 12.6 285 9.2
2006-09-06 05:36:07 51°15.654 2°48.822 290.9 12.7 284 9.2
2006-09-06 05:36:12 51°15.658 2°48.795 289.7 12.7 283 9.3
2006-09-06 05:36:17 51°15.662 2°48.768 289 12.7 283 9.3
2006-09-06 05:36:22 51°15.666 2°48.741 290.1 12.7 285 9.3
2006-09-06 05:36:27 51°15.672 2°48.714 291.5 12.7 287 9.3
2006-09-06 05:36:32 51°15.677 2°48.687 292.7 12.7 287 9.5
2006-09-06 05:36:37 51°15.682 2°48.66 293.8 12.7 288 9.5
2006-09-06 05:36:41 51°15.687 2°48.639 294.2 12.7 288 9.5
2006-09-06 05:36:47 51°15.693 2°48.607 294.6 12.7 289 9.6
2006-09-06 05:36:52 51°15.699 2°48.58 295.3 12.7 289 9.7
2006-09-06 05:36:57 51°15.704 2°48.554 295.3 12.8 288 9.9
2006-09-06 05:37:02 51°15.71 2°48.527 295.3 12.7 289 9.9
2006-09-06 05:37:07 51°15.715 2°48.5 295.1 12.8 288 10
2006-09-06 05:37:11 51°15.72 2°48.478 294.8 12.8 287 10.1
2006-09-06 05:37:17 51°15.726 2°48.446 294.3 12.8 288 10.2
2006-09-06 05:37:21 51°15.73 2°48.424 293.6 12.9 286 10.3
2006-09-06 05:37:27 51°15.736 2°48.391 293.2 12.8 286 10.4
2006-09-06 05:37:31 51°15.74 2°48.369 292.9 12.9 286 10.5
2006-09-06 05:37:36 51°15.745 2°48.342 292.8 12.9 287 10.6
2006-09-06 05:37:42 51°15.751 2°48.309 293.3 12.9 287 10.7
2006-09-06 05:37:47 51°15.757 2°48.282 293.7 12.9 287 10.8
2006-09-06 05:37:52 51°15.762 2°48.255 293.9 12.9 287 11
2006-09-06 05:37:56 51°15.766 2°48.233 293.9 12.9 287 11.2
2006-09-06 05:38:02 51°15.772 2°48.2 293.7 12.9 287 11.4
2006-09-06 05:38:07 51°15.777 2°48.173 293.4 12.9 286 11.6
2006-09-06 05:38:12 51°15.782 2°48.145 292.8 13 286 11.8
2006-09-06 05:38:16 51°15.786 2°48.123 292.5 13 286 11.9
2006-09-06 05:38:21 51°15.791 2°48.095 292.5 13 286 12
2006-09-06 05:38:27 51°15.797 2°48.062 292.7 13 286 12.3
2006-09-06 05:38:32 51°15.802 2°48.035 292.8 13 286 12.4
2006-09-06 05:38:37 51°15.807 2°48.007 293.1 13 286 12.5
2006-09-06 05:38:42 51°15.812 2°47.98 293.1 13 286 12.7
2006-09-06 05:38:47 51°15.817 2°47.952 293 13 286 12.9
2006-09-06 05:38:52 51°15.822 2°47.924 293 13 286 13
2006-09-06 05:38:56 51°15.826 2°47.902 292.6 13 285 13.1
2006-09-06 05:39:02 51°15.831 2°47.869 292.5 13 285 13.3
2006-09-06 05:39:07 51°15.836 2°47.841 292.3 13 286 13.3
2006-09-06 05:39:12 51°15.841 2°47.813 292.3 13 285 13.4
2006-09-06 05:39:17 51°15.846 2°47.785 292.4 13 286 13.5
2006-09-06 05:39:21 51°15.85 2°47.763 292.5 13 286 13.7
2006-09-06 05:39:27 51°15.856 2°47.73 292.5 13.1 285 13.8
2006-09-06 05:39:32 51°15.861 2°47.702 292.5 13.1 285 14
2006-09-06 05:39:37 51°15.865 2°47.674 291.2 13.1 283 14
2006-09-06 05:39:41 51°15.868 2°47.651 290.3 13 283 14.3
2006-09-06 05:39:47 51°15.872 2°47.617 288.5 13.1 281 14.4
2006-09-06 05:39:51 51°15.875 2°47.594 287.5 13.1 280 14.5
2006-09-06 05:39:57 51°15.878 2°47.56 287 13 279 14.6
2006-09-06 05:40:01 51°15.879 2°47.537 284.1 13 275 14.7
2006-09-06 05:40:07 51°15.878 2°47.503 278.4 13 269 14.7
2006-09-06 05:40:10 51°15.877 2°47.485 274.1 13.1 266 14.8
2006-09-06 05:40:17 51°15.874 2°47.445 270 13.1 263 14.8
2006-09-06 05:40:21 51°15.871 2°47.423 268 13 261 14.7
2006-09-06 05:40:27 51°15.865 2°47.39 261.3 13 253 14.8
2006-09-06 05:40:32 51°15.859 2°47.363 257.6 13 251 14.7
2006-09-06 05:40:37 51°15.852 2°47.336 252.5 13.1 248 14.7
2006-09-06 05:40:41 51°15.847 2°47.314 251 13.2 249 14.8
2006-09-06 05:40:47 51°15.838 2°47.282 249.3 13.2 246 14.9
2006-09-06 05:40:52 51°15.833 2°47.254 250.5 13.2 252 14.9
2006-09-06 05:40:57 51°15.828 2°47.226 255.9 13.2 255 14.8
2006-09-06 05:41:01 51°15.825 2°47.203 258.5 13.2 257 14.9
2006-09-06 05:41:07 51°15.821 2°47.168 261.2 13.2 260 15.1
2006-09-06 05:41:12 51°15.819 2°47.139 264.5 13.2 263 15.1
2006-09-06 05:41:17 51°15.819 2°47.111 269 13.2 267 15.1
2006-09-06 05:41:21 51°15.818 2°47.087 272.3 13.1 269 15.3
2006-09-06 05:41:27 51°15.819 2°47.052 275 13.1 272 15.3
2006-09-06 05:41:32 51°15.822 2°47.024 278.5 13.1 276 15.4
2006-09-06 05:41:37 51°15.824 2°46.995 283 13 278 15.3
2006-09-06 05:41:42 51°15.828 2°46.967 285 13 281 15.3
2006-09-06 05:41:47 51°15.833 2°46.939 288.8 13 284 15.4
2006-09-06 05:41:50 51°15.836 2°46.923 290.4 13 285 15.4
2006-09-06 05:41:57 51°15.843 2°46.884 292.6 13 288 15.4
2006-09-06 05:42:00 51°15.846 2°46.868 293.8 13 288 15.5
2006-09-06 05:42:07 51°15.855 2°46.83 296.2 12.9 291 15.5
2006-09-06 05:42:12 51°15.862 2°46.804 298.3 12.9 292 15.5
2006-09-06 05:42:17 51°15.869 2°46.778 300 12.9 294 15.5
2006-09-06 05:42:21 51°15.876 2°46.757 301.4 12.8 296 15.5
2006-09-06 05:42:27 51°15.886 2°46.728 304.2 12.8 299 15.5
2006-09-06 05:42:32 51°15.895 2°46.703 306.2 12.7 300 15.3
2006-09-06 05:42:36 51°15.902 2°46.684 308.2 12.7 301 15.2
2006-09-06 05:42:41 51°15.911 2°46.66 308.7 12.7 301 15.1
2006-09-06 05:42:47 51°15.922 2°46.631 308.7 12.7 301 15.1
2006-09-06 05:42:52 51°15.931 2°46.606 308.3 12.7 301 14.9
2006-09-06 05:42:57 51°15.94 2°46.582 307.9 12.7 300 14.6
2006-09-06 05:43:02 51°15.949 2°46.558 307.7 12.7 300 14.6
2006-09-06 05:43:07 51°15.958 2°46.534 307.6 12.7 301 14.3
2006-09-06 05:43:12 51°15.967 2°46.51 308.4 12.6 302 14.1
2006-09-06 05:43:17 51°15.977 2°46.487 309.6 12.7 302 13.8
2006-09-06 05:43:21 51°15.984 2°46.468 310.2 12.6 303 13.3
2006-09-06 05:43:27 51°15.996 2°46.44 310.8 12.6 303 12.8
2006-09-06 05:43:32 51°16.005 2°46.417 310.9 12.6 303 12.4
2006-09-06 05:43:37 51°16.015 2°46.394 311.1 12.6 303 12.2
2006-09-06 05:43:42 51°16.024 2°46.371 310.7 12.6 303 12.1
2006-09-06 05:43:47 51°16.034 2°46.347 310.3 12.5 303 12
2006-09-06 05:43:52 51°16.043 2°46.324 309.9 12.5 302 11.9
2006-09-06 05:43:57 51°16.052 2°46.3 309.3 12.5 302 11.7
2006-09-06 05:44:01 51°16.059 2°46.281 308.1 12.5 300 11.6
2006-09-06 05:44:05 51°16.066 2°46.262 307.4 12.5 301 11.5
2006-09-06 05:44:11 51°16.077 2°46.234 308 12.4 301 11.4
2006-09-06 05:44:16 51°16.085 2°46.21 307.7 12.4 300 11.3
2006-09-06 05:44:22 51°16.095 2°46.181 306.8 12.4 299 11.1
2006-09-06 05:44:27 51°16.103 2°46.157 305.2 12.5 298 10.9
2006-09-06 05:44:32 51°16.111 2°46.132 304.8 12.4 297 10.7
2006-09-06 05:44:37 51°16.118 2°46.108 303.9 12.4 296 10.5
2006-09-06 05:44:41 51°16.125 2°46.088 303.9 12.4 298 10.3
2006-09-06 05:44:47 51°16.134 2°46.06 304.4 12.3 298 10.2
2006-09-06 05:44:51 51°16.141 2°46.04 304.6 12.3 297 10.1
2006-09-06 05:44:57 51°16.15 2°46.011 304.1 12.2 297 10.1
2006-09-06 05:45:01 51°16.156 2°45.992 303.8 12.3 296 10
2006-09-06 05:45:07 51°16.165 2°45.963 303.3 12.2 297 9.9
2006-09-06 05:45:12 51°16.173 2°45.938 303.3 12.3 296 9.8
2006-09-06 05:45:17 51°16.181 2°45.914 303.2 12.3 297 9.9
2006-09-06 05:45:21 51°16.186 2°45.894 303.3 12.3 296 9.7
2006-09-06 05:45:27 51°16.196 2°45.865 303.3 12.2 297 9.6
2006-09-06 05:45:32 51°16.203 2°45.841 303.8 12.2 296 9.5
2006-09-06 05:45:37 51°16.211 2°45.817 303.8 12.1 297 9.3
2006-09-06 05:45:42 51°16.218 2°45.793 303.6 12.2 296 9.2
2006-09-06 05:45:47 51°16.226 2°45.769 303.6 12.1 297 9.1
2006-09-06 05:45:52 51°16.233 2°45.745 303.3 12.1 296 9.1
2006-09-06 05:45:57 51°16.241 2°45.721 303.7 12.2 297 9.2
2006-09-06 05:46:01 51°16.248 2°45.703 304.8 12.1 299 9.2
2006-09-06 05:46:07 51°16.258 2°45.675 306.5 12.1 300 9.3
2006-09-06 05:46:11 51°16.265 2°45.657 307.7 12.1 301 9.1
2006-09-06 05:46:17 51°16.275 2°45.629 308.4 12.1 300 9.1
2006-09-06 05:46:21 51°16.282 2°45.61 308.4 12.1 301 9.2
2006-09-06 05:46:27 51°16.292 2°45.582 307.7 12.1 299 9.2
2006-09-06 05:46:32 51°16.3 2°45.558 306.7 12.1 298 9.3
2006-09-06 05:46:37 51°16.308 2°45.534 305.7 12.2 297 9.3
2006-09-06 05:46:42 51°16.316 2°45.51 304.9 12.2 297 9.4
2006-09-06 05:46:47 51°16.323 2°45.487 304.6 12.2 297 9.7
2006-09-06 05:46:51 51°16.329 2°45.468 304.5 12.2 297 9.7
2006-09-06 05:46:57 51°16.338 2°45.439 303.8 12.2 296 9.6
2006-09-06 05:47:02 51°16.345 2°45.415 303.6 12.2 296 9.5
2006-09-06 05:47:07 51°16.352 2°45.391 303.4 12.1 296 9.6
2006-09-06 05:47:12 51°16.359 2°45.367 303.3 12.2 296 9.7
2006-09-06 05:47:17 51°16.367 2°45.343 303.3 12.1 296 9.6
2006-09-06 05:47:21 51°16.372 2°45.324 303.4 12.1 296 9.5
2006-09-06 05:47:27 51°16.381 2°45.294 303.4 12.1 296 9.6
2006-09-06 05:47:32 51°16.389 2°45.27 303.8 12.1 296 9.6
2006-09-06 05:47:37 51°16.396 2°45.246 304.1 12.1 296 9.6
2006-09-06 05:47:41 51°16.403 2°45.227 304.5 12.1 297 9.5
2006-09-06 05:47:47 51°16.412 2°45.198 304.6 12.2 297 9.8
2006-09-06 05:47:52 51°16.419 2°45.174 304.6 12.2 297 10.1
2006-09-06 05:47:57 51°16.427 2°45.15 304.9 12.2 297 9.9
2006-09-06 05:48:00 51°16.431 2°45.135 304.8 12.2 297 10.2
2006-09-06 05:48:07 51°16.442 2°45.102 304.4 12.3 296 10.5
2006-09-06 05:48:12 51°16.449 2°45.078 304.3 12.3 297 10.5
2006-09-06 05:48:17 51°16.457 2°45.053 304.7 12.3 297 10.5
2006-09-06 05:48:21 51°16.463 2°45.034 304.8 12.2 297 9.9
2006-09-06 05:48:27 51°16.473 2°45.005 304.8 12.2 297 9.7
2006-09-06 05:48:32 51°16.48 2°44.981 304.5 12.2 296 10
2006-09-06 05:48:37 51°16.487 2°44.956 304 12.2 296 10
2006-09-06 05:48:41 51°16.493 2°44.937 304 12.2 296 9.8
2006-09-06 05:48:47 51°16.502 2°44.908 303.9 12.2 296 9.6
2006-09-06 05:48:51 51°16.508 2°44.889 304.2 12.2 297 9.6
2006-09-06 05:48:57 51°16.517 2°44.859 304.5 12.2 296 9.4
2006-09-06 05:49:02 51°16.524 2°44.835 304.4 12.2 296 9.2
2006-09-06 05:49:07 51°16.532 2°44.811 304.6 12.1 296 8.7
2006-09-06 05:49:12 51°16.54 2°44.787 305 12.1 297 9.4
2006-09-06 05:49:17 51°16.547 2°44.763 305.2 12.2 297 9.5
2006-09-06 05:49:21 51°16.554 2°44.745 305.6 12.2 298 9.6
2006-09-06 05:49:27 51°16.563 2°44.716 306 12.3 298 9.9
2006-09-06 05:49:32 51°16.571 2°44.692 306.1 12.3 298 10.2
2006-09-06 05:49:37 51°16.579 2°44.667 306 12.3 297 10
2006-09-06 05:49:41 51°16.585 2°44.648 305.5 12.3 297 10.4
2006-09-06 05:49:47 51°16.594 2°44.619 305.1 12.3 296 10.4
2006-09-06 05:49:52 51°16.602 2°44.594 304.8 12.3 297 10.5
2006-09-06 05:49:56 51°16.608 2°44.574 304.8 12.3 297 10.8
2006-09-06 05:50:00 51°16.614 2°44.555 304.8 12.4 296 10.8
2006-09-06 05:50:07 51°16.625 2°44.521 304.8 12.4 296 11.1
2006-09-06 05:50:12 51°16.633 2°44.496 304.9 12.4 297 11.5
2006-09-06 05:50:17 51°16.64 2°44.472 304.9 12.3 297 11.9
2006-09-06 05:50:21 51°16.646 2°44.453 304.8 12.3 296 12.1
2006-09-06 05:50:27 51°16.655 2°44.423 304.6 12.4 296 12.4
2006-09-06 05:50:32 51°16.663 2°44.398 304.6 12.3 296 12.7
2006-09-06 05:50:37 51°16.671 2°44.374 304.8 12.4 297 12.9
2006-09-06 05:50:42 51°16.678 2°44.349 304.8 12.4 297 13
2006-09-06 05:50:47 51°16.686 2°44.325 304.8 12.4 297 13.2
2006-09-06 05:50:51 51°16.692 2°44.305 304.8 12.4 297 13.1
2006-09-06 05:50:57 51°16.701 2°44.275 305 12.4 297 13.3
2006-09-06 05:51:02 51°16.709 2°44.25 305.2 12.4 296 13.4
2006-09-06 05:51:07 51°16.717 2°44.226 305.2 12.4 297 13.5
2006-09-06 05:51:12 51°16.725 2°44.202 305.5 12.4 297 13.5
2006-09-06 05:51:17 51°16.733 2°44.177 306.8 12.4 299 13.6
2006-09-06 05:51:21 51°16.74 2°44.158 308.3 12.4 300 13.6
2006-09-06 05:51:27 51°16.751 2°44.13 309.7 12.4 301 13.7
2006-09-06 05:51:32 51°16.76 2°44.108 310.3 12.3 301 13.7
2006-09-06 05:51:36 51°16.767 2°44.089 310.7 12.3 301 13.7
2006-09-06 05:51:42 51°16.778 2°44.061 310.6 12.4 301 13.6
2006-09-06 05:51:47 51°16.787 2°44.038 310.6 12.4 301 13.4
2006-09-06 05:51:52 51°16.796 2°44.015 310.6 12.3 302 13.5
2006-09-06 05:51:57 51°16.805 2°43.991 310.6 12.3 301 13.6
2006-09-06 05:52:02 51°16.814 2°43.968 310.1 12.4 301 13.7
2006-09-06 05:52:07 51°16.823 2°43.944 309.9 12.4 301 13.7
2006-09-06 05:52:12 51°16.831 2°43.92 309.9 12.4 301 14
2006-09-06 05:52:16 51°16.838 2°43.902 309.9 12.4 301 13.6
2006-09-06 05:52:21 51°16.847 2°43.878 310 12.4 301 13.4
2006-09-06 05:52:27 51°16.857 2°43.849 309.7 12.4 300 13.4
2006-09-06 05:52:32 51°16.866 2°43.826 309.1 12.5 300 13.4
2006-09-06 05:52:37 51°16.875 2°43.802 309.1 12.4 300 13.4
2006-09-06 05:52:40 51°16.88 2°43.788 309 12.5 299 13.6
2006-09-06 05:52:47 51°16.892 2°43.754 308.8 12.4 300 13.8
2006-09-06 05:52:50 51°16.897 2°43.74 308.8 12.4 300 13.6
2006-09-06 05:52:57 51°16.909 2°43.706 308.6 12.4 300 13.4
2006-09-06 05:53:02 51°16.918 2°43.682 308.5 12.4 299 13.2
2006-09-06 05:53:07 51°16.926 2°43.658 308.1 12.5 299 13.1
2006-09-06 05:53:11 51°16.932 2°43.638 307.9 12.5 299 12.8
2006-09-06 05:53:17 51°16.942 2°43.608 307.4 12.5 298 13
2006-09-06 05:53:22 51°16.95 2°43.583 305.9 12.5 296 13
2006-09-06 05:53:27 51°16.957 2°43.558 305 12.5 296 13.2
2006-09-06 05:53:32 51°16.965 2°43.533 304.1 12.6 295 13.1
2006-09-06 05:53:37 51°16.972 2°43.507 303.2 12.6 295 13
2006-09-06 05:53:42 51°16.979 2°43.482 302.9 12.6 294 13
2006-09-06 05:53:46 51°16.985 2°43.462 302.4 12.7 294 12.9
2006-09-06 05:53:52 51°16.994 2°43.432 302.4 12.6 294 12.9
2006-09-06 05:53:57 51°17.001 2°43.406 301.9 12.6 294 13.1
2006-09-06 05:54:01 51°17.006 2°43.386 302 12.6 294 13.1
2006-09-06 05:54:07 51°17.015 2°43.355 302.2 12.7 294 13
2006-09-06 05:54:11 51°17.021 2°43.335 302.6 12.7 295 12.5
2006-09-06 05:54:16 51°17.029 2°43.31 303.3 12.6 296 11.9
2006-09-06 05:54:21 51°17.037 2°43.285 305.2 12.5 297 11.1
2006-09-06 05:54:27 51°17.047 2°43.256 306.5 12.5 299 12.1
2006-09-06 05:54:32 51°17.055 2°43.232 307.5 12.5 299 12.4
2006-09-06 05:54:37 51°17.064 2°43.208 308.2 12.6 301 12.2
2006-09-06 05:54:41 51°17.071 2°43.189 309 12.6 301 11.5
2006-09-06 05:54:47 51°17.082 2°43.16 309.2 12.6 300 10.6
2006-09-06 05:54:52 51°17.091 2°43.137 309.2 12.5 301 10.8
2006-09-06 05:54:57 51°17.1 2°43.113 309.3 12.5 301 11.8
2006-09-06 05:55:01 51°17.107 2°43.094 309.2 12.6 301 11.7
2006-09-06 05:55:07 51°17.118 2°43.065 309.4 12.6 301 11.2
2006-09-06 05:55:11 51°17.125 2°43.046 309.2 12.6 301 10.6
2006-09-06 05:55:17 51°17.135 2°43.017 309.4 12.6 301 10.1
2006-09-06 05:55:22 51°17.144 2°42.994 309.3 12.5 301 10
2006-09-06 05:55:27 51°17.153 2°42.97 309.2 12.6 300 9.8
2006-09-06 05:55:31 51°17.16 2°42.95 308.7 12.5 300 9.2
2006-09-06 05:55:36 51°17.168 2°42.926 307.4 12.5 298 9.1
2006-09-06 05:55:41 51°17.176 2°42.901 305.9 12.5 297 9.2
2006-09-06 05:55:47 51°17.185 2°42.871 304.9 12.6 296 8.5
2006-09-06 05:55:52 51°17.194 2°42.847 305 12.5 298 8.1
2006-09-06 05:55:57 51°17.202 2°42.822 305.4 12.5 298 8
2006-09-06 05:56:01 51°17.209 2°42.804 306.5 12.5 301 7.4
2006-09-06 05:56:07 51°17.219 2°42.774 307 12.4 298 9.2
2006-09-06 05:56:11 51°17.226 2°42.756 307 12.5 301 10
2006-09-06 05:56:17 51°17.237 2°42.726 307.7 12.8 300 9.9
2006-09-06 05:56:21 51°17.244 2°42.707 308.4 12.8 302 9.2
2006-09-06 05:56:27 51°17.255 2°42.678 308.4 12.9 300 8.7
2006-09-06 05:56:32 51°17.264 2°42.654 308.1 12.7 301 9.5
2006-09-06 05:56:37 51°17.273 2°42.629 307.7 12.7 299 10
2006-09-06 05:56:41 51°17.28 2°42.61 307.6 12.7 300 9.9
2006-09-06 05:56:47 51°17.29 2°42.58 306.7 12.8 298 10.6
2006-09-06 05:56:52 51°17.299 2°42.555 306 12.9 299 11.6
2006-09-06 05:56:57 51°17.307 2°42.53 305.8 12.9 299 12.6
2006-09-06 05:57:01 51°17.315 2°42.51 306.2 13 299 14.2
2006-09-06 05:57:07 51°17.325 2°42.48 306.6 13 300 16.1
2006-09-06 05:57:11 51°17.332 2°42.461 307.2 12.9 300 17.9
2006-09-06 05:57:16 51°17.341 2°42.436 307.6 12.9 300 18.8
2006-09-06 05:57:22 51°17.352 2°42.406 307.1 12.9 299 19.2
2006-09-06 05:57:27 51°17.36 2°42.382 306.8 12.8 299 19.7
2006-09-06 05:57:32 51°17.369 2°42.357 306.7 12.7 299 20
2006-09-06 05:57:37 51°17.377 2°42.332 306.2 12.8 298 20.4
2006-09-06 05:57:41 51°17.384 2°42.312 305.6 12.8 298 20.7
2006-09-06 05:57:47 51°17.393 2°42.283 305.4 12.7 298 21
2006-09-06 05:57:51 51°17.4 2°42.263 305.3 12.7 298 21.3
2006-09-06 05:57:57 51°17.41 2°42.233 305.5 12.7 298 21.6
2006-09-06 05:58:00 51°17.415 2°42.218 305.6 12.7 298 21.4
2006-09-06 05:58:07 51°17.426 2°42.184 305.7 12.7 298 21.9
2006-09-06 05:58:12 51°17.434 2°42.158 305.7 12.7 297 22.1
2006-09-06 05:58:17 51°17.441 2°42.131 305.6 12.7 297 22.1
2006-09-06 05:58:20 51°17.446 2°42.116 305.5 12.7 297 22.1
2006-09-06 05:58:27 51°17.459 2°42.082 305.2 12.7 297 22.3
2006-09-06 05:58:32 51°17.467 2°42.057 304.9 12.8 297 22.6
2006-09-06 05:58:37 51°17.475 2°42.031 304.8 12.7 296 22.6
2006-09-06 05:58:41 51°17.481 2°42.011 304.5 12.7 296 22.4
2006-09-06 05:58:47 51°17.49 2°41.981 304.6 12.8 296 22.4
2006-09-06 05:58:51 51°17.497 2°41.96 304.9 12.8 297 22.4
2006-09-06 05:58:57 51°17.506 2°41.93 305.3 12.7 297 22.3
2006-09-06 05:59:01 51°17.513 2°41.91 305.9 12.7 297 22.4
2006-09-06 05:59:07 51°17.523 2°41.88 305.9 12.7 297 22.5
2006-09-06 05:59:12 51°17.531 2°41.855 305.9 12.8 297 22.9
2006-09-06 05:59:17 51°17.539 2°41.83 305.9 12.8 297 23.2
2006-09-06 05:59:21 51°17.545 2°41.81 305.9 12.8 297 23.2
2006-09-06 05:59:27 51°17.554 2°41.78 305.7 12.7 297 23.1
2006-09-06 05:59:32 51°17.562 2°41.755 305.5 12.7 296 23
2006-09-06 05:59:37 51°17.57 2°41.729 305.4 12.7 296 22.8
2006-09-06 05:59:41 51°17.576 2°41.709 305.1 12.7 296 22.7
2006-09-06 05:59:47 51°17.586 2°41.679 305.1 12.7 296 22.6
2006-09-06 05:59:51 51°17.592 2°41.658 304.9 12.7 296 22.5
2006-09-06 05:59:57 51°17.601 2°41.628 305 12.7 296 22.5
2006-09-06 06:00:02 51°17.609 2°41.603 305.3 12.7 296 22.5
2006-09-06 06:00:07 51°17.617 2°41.577 305.1 12.7 295 22.4
2006-09-06 06:00:12 51°17.624 2°41.551 304.2 12.8 294 22.3
2006-09-06 06:00:17 51°17.632 2°41.526 304 12.7 296 22.2
2006-09-06 06:00:22 51°17.639 2°41.501 304.5 12.7 295 22.3
2006-09-06 06:00:27 51°17.647 2°41.475 304.6 12.7 295 22.1
2006-09-06 06:00:31 51°17.653 2°41.454 303.7 12.7 294 22.1
2006-09-06 06:00:37 51°17.661 2°41.424 302.4 12.7 293 22
2006-09-06 06:00:41 51°17.666 2°41.403 301.8 12.8 292 22.2
2006-09-06 06:00:46 51°17.672 2°41.377 301.3 12.8 292 21.9
2006-09-06 06:00:52 51°17.68 2°41.346 300.9 12.8 292 21.8
2006-09-06 06:00:57 51°17.687 2°41.319 300.8 12.8 292 22.1
2006-09-06 06:01:01 51°17.693 2°41.299 301.6 12.7 293 21.9
2006-09-06 06:01:07 51°17.701 2°41.268 302.6 12.7 294 21.8
2006-09-06 06:01:12 51°17.709 2°41.243 303.7 12.7 295 21.6
2006-09-06 06:01:17 51°17.717 2°41.218 305 12.6 297 21.6
2006-09-06 06:01:22 51°17.725 2°41.193 306.3 12.6 297 21.4
2006-09-06 06:01:27 51°17.733 2°41.169 306.7 12.6 298 21.2
2006-09-06 06:01:32 51°17.741 2°41.144 306.7 12.6 297 21.4
2006-09-06 06:01:37 51°17.749 2°41.119 306.6 12.6 298 20.9
2006-09-06 06:01:42 51°17.757 2°41.094 306.5 12.6 297 21
2006-09-06 06:01:47 51°17.765 2°41.069 306.9 12.6 297 20.7
2006-09-06 06:01:51 51°17.771 2°41.049 306 12.7 296 20.2
2006-09-06 06:01:57 51°17.781 2°41.019 304.9 12.7 296 19.8
2006-09-06 06:02:01 51°17.787 2°40.999 304.9 12.7 296 17.9
2006-09-06 06:02:06 51°17.794 2°40.974 305.6 12.7 296 19.6
2006-09-06 06:02:11 51°17.802 2°40.948 305.2 12.7 297 19.6
2006-09-06 06:02:17 51°17.812 2°40.918 305.9 12.7 297 19
2006-09-06 06:02:22 51°17.82 2°40.894 307 12.7 298 18.8
2006-09-06 06:02:27 51°17.828 2°40.869 306.6 12.7 297 18.3
2006-09-06 06:02:31 51°17.835 2°40.849 306.6 12.7 298 17.8
2006-09-06 06:02:37 51°17.845 2°40.819 307 12.7 299 17.8
2006-09-06 06:02:42 51°17.854 2°40.795 308.1 12.6 300 17.1
2006-09-06 06:02:47 51°17.863 2°40.772 308.8 12.6 301 17.1
2006-09-06 06:02:52 51°17.872 2°40.748 309 12.7 300 15.5
2006-09-06 06:02:57 51°17.881 2°40.723 309.1 12.6 300 14.7
2006-09-06 06:03:01 51°17.888 2°40.704 308.8 12.6 300 15.3
2006-09-06 06:03:07 51°17.899 2°40.675 309.1 12.7 301 13.6
2006-09-06 06:03:11 51°17.906 2°40.656 309.4 12.7 300 14.8
2006-09-06 06:03:17 51°17.916 2°40.626 308.7 12.7 300 15.4
2006-09-06 06:03:21 51°17.923 2°40.606 308.4 12.8 299 13.2
2006-09-06 06:03:27 51°17.934 2°40.577 308.2 12.8 299 15
2006-09-06 06:03:31 51°17.94 2°40.557 307.7 12.8 300 15.1
2006-09-06 06:03:36 51°17.949 2°40.533 308.3 12.8 300 15
2006-09-06 06:03:41 51°17.958 2°40.508 308.4 12.8 300 15.4
2006-09-06 06:03:47 51°17.969 2°40.479 308.1 12.8 300 14.6
2006-09-06 06:03:52 51°17.977 2°40.454 308.1 12.8 300 13.6
2006-09-06 06:03:57 51°17.986 2°40.429 307.6 12.8 300 14.2
2006-09-06 06:04:02 51°17.995 2°40.405 307.7 12.8 300 14.6
2006-09-06 06:04:07 51°18.004 2°40.38 307.4 12.9 299 15.4
2006-09-06 06:04:12 51°18.012 2°40.355 307 12.9 298 16.1
2006-09-06 06:04:17 51°18.02 2°40.329 304.9 13 297 16.1
2006-09-06 06:04:22 51°18.028 2°40.304 304.5 12.9 297 16.9
2006-09-06 06:04:27 51°18.037 2°40.278 305.3 12.9 298 17.2
2006-09-06 06:04:32 51°18.045 2°40.253 305.6 12.9 298 17.5
2006-09-06 06:04:37 51°18.053 2°40.227 304.8 13 297 17.4
2006-09-06 06:04:41 51°18.06 2°40.207 305.5 12.9 299 18.1
2006-09-06 06:04:46 51°18.069 2°40.183 306.2 12.9 299 18.5
2006-09-06 06:04:52 51°18.08 2°40.153 307.6 12.8 301 18.4
2006-09-06 06:04:57 51°18.089 2°40.129 308.1 12.8 301 18.8
2006-09-06 06:05:01 51°18.097 2°40.11 309.1 12.8 302 18
2006-09-06 06:05:06 51°18.106 2°40.086 309.3 12.8 301 13.2
2006-09-06 06:05:12 51°18.116 2°40.056 309 12.8 300 13.5
2006-09-06 06:05:17 51°18.125 2°40.032 307.9 12.8 300 13.8
2006-09-06 06:05:21 51°18.133 2°40.013 308.4 12.7 301 13.9
2006-09-06 06:05:27 51°18.143 2°39.983 307.8 12.8 300 10.9
2006-09-06 06:05:32 51°18.151 2°39.958 306.7 12.8 299 11.6